Time;durP1;ratioP1;P1;durP2;ratioP2;P2;SDS_P1;SDS_P2;PMS_P1;PMS_P2;Temp;Humidity;BMP_temperature;BMP_pressure;BME280_temperature;BME280_humidity;BME280_pressure;Samples;Min_cycle;Max_cycle;Signal;HPM_P1;HPM_P2
2022/02/14 00:00:32;;;;;;;0.00;0.00;;;;;;;5.37;90.86;100226.66;10378946;28;20457;-63
2022/02/14 00:05:32;;;;;;;0.00;0.00;;;;;;;5.36;90.89;100218.88;10390135;28;20156;-63
2022/02/14 00:10:33;;;;;;;0.00;0.00;;;;;;;5.37;90.61;100216.09;10384128;28;20277;-62
2022/02/14 00:15:34;;;;;;;0.00;0.00;;;;;;;5.43;90.20;100209.41;10392484;28;20052;-63
2022/02/14 00:20:34;;;;;;;0.00;0.00;;;;;;;5.49;90.19;100206.19;10384873;28;20100;-63
2022/02/14 00:25:35;;;;;;;0.00;0.00;;;;;;;5.52;89.94;100197.16;10395473;28;20103;-63
2022/02/14 00:30:35;;;;;;;0.00;0.00;;;;;;;5.58;89.74;100189.50;10392413;28;20026;-63
2022/02/14 00:35:36;;;;;;;0.00;0.00;;;;;;;5.63;89.13;100181.16;10387583;28;20175;-65
2022/02/14 00:40:36;;;;;;;0.00;0.00;;;;;;;5.64;89.16;100177.53;10392727;28;20104;-63
2022/02/14 00:45:37;;;;;;;0.00;0.00;;;;;;;5.64;89.32;100165.16;10387947;28;20029;-63
2022/02/14 00:50:37;;;;;;;0.00;0.00;;;;;;;5.72;89.53;100166.25;10394850;28;20029;-63
2022/02/14 00:55:37;;;;;;;0.00;0.00;;;;;;;5.73;88.91;100155.53;10377557;28;20041;-63
2022/02/14 01:00:38;;;;;;;0.00;0.00;;;;;;;5.77;88.52;100156.91;10384037;28;20476;-62
2022/02/14 01:05:38;;;;;;;0.00;0.00;;;;;;;5.75;89.06;100136.88;10391907;28;20030;-63
2022/02/14 01:10:38;;;;;;;0.00;0.00;;;;;;;5.80;88.55;100135.47;10394307;28;20269;-63
2022/02/14 01:15:39;;;;;;;0.00;0.00;;;;;;;5.83;88.50;100126.44;10392548;28;20014;-63
2022/02/14 01:20:39;;;;;;;0.00;0.00;;;;;;;5.84;89.00;100130.72;10390981;28;20271;-63
2022/02/14 01:25:39;;;;;;;0.00;0.00;;;;;;;5.92;88.15;100127.38;10389443;28;20017;-63
2022/02/14 01:30:40;;;;;;;0.00;0.00;;;;;;;5.86;88.52;100134.06;10390513;28;20080;-63
2022/02/14 01:35:41;;;;;;;0.00;0.00;;;;;;;5.75;88.67;100116.56;10400523;28;20264;-63
2022/02/14 01:40:41;;;;;;;0.00;0.00;;;;;;;5.62;89.59;100116.91;10399043;28;20018;-63
2022/02/14 01:45:45;;;;;;;0.00;0.00;;;;;;;5.56;90.03;100112.22;10396275;28;20021;-62
2022/02/14 01:50:47;;;;;;;0.00;0.00;;;;;;;5.54;90.41;100110.69;10387385;28;20022;-64
2022/02/14 01:55:48;;;;;;;0.00;0.00;;;;;;;5.62;89.31;100092.31;10394868;28;20030;-64
2022/02/14 02:00:48;;;;;;;0.00;0.00;;;;;;;5.66;89.50;100085.75;10387560;28;20029;-64
2022/02/14 02:05:49;;;;;;;0.00;0.00;;;;;;;5.68;89.27;100086.44;10389728;28;20010;-62
2022/02/14 02:10:50;;;;;;;0.00;0.00;;;;;;;5.64;89.64;100061.25;10399306;28;20064;-63
2022/02/14 02:15:50;;;;;;;0.00;0.00;;;;;;;5.52;90.31;100065.91;10380814;28;20025;-63
2022/02/14 02:20:50;;;;;;;0.00;0.00;;;;;;;5.49;90.49;100054.81;10399963;28;20025;-63
2022/02/14 02:25:51;;;;;;;0.00;0.00;;;;;;;5.50;90.60;100049.41;10394618;28;20108;-63
2022/02/14 02:30:51;;;;;;;0.00;0.00;;;;;;;5.50;91.12;100057.31;10385553;28;20364;-63
2022/02/14 02:35:51;;;;;;;0.00;0.00;;;;;;;5.56;90.80;100026.84;10377988;28;20022;-63
2022/02/14 02:40:52;;;;;;;0.00;0.00;;;;;;;5.59;90.72;100021.28;10390690;28;20455;-63
2022/02/14 02:45:59;;;;;;;0.00;0.00;;;;;;;5.65;90.04;100031.25;10396217;28;20437;-63
2022/02/14 02:51:02;;;;;;;0.00;0.00;;;;;;;5.60;90.45;100017.63;10386192;28;20025;-69
2022/02/14 02:56:04;;;;;;;0.00;0.00;;;;;;;5.55;90.09;100020.72;10401839;28;20032;-65
2022/02/14 03:01:04;;;;;;;0.00;0.00;;;;;;;5.54;90.41;100007.66;10396017;28;20049;-65
2022/02/14 03:06:04;;;;;;;0.00;0.00;;;;;;;5.48;91.31;100003.78;10397746;28;20060;-65
2022/02/14 03:11:05;;;;;;;0.00;0.00;;;;;;;5.50;91.35;99993.94;10385633;28;20272;-65
2022/02/14 03:16:05;;;;;;;0.00;0.00;;;;;;;5.43;92.16;99996.28;10386268;28;20018;-65
2022/02/14 03:21:06;;;;;;;0.00;0.00;;;;;;;5.42;91.44;99989.34;10395232;28;20264;-65
2022/02/14 03:26:07;;;;;;;0.00;0.00;;;;;;;5.44;91.61;99976.03;10389659;28;20057;-65
2022/02/14 03:31:07;;;;;;;0.00;0.00;;;;;;;5.57;91.14;99970.38;10388779;28;20049;-65
2022/02/14 03:36:07;;;;;;;0.00;0.00;;;;;;;5.66;91.55;99957.09;10386107;28;20029;-65
2022/02/14 03:41:09;;;;;;;0.00;0.00;;;;;;;5.66;91.47;99959.75;10394323;28;20384;-65
2022/02/14 03:46:09;;;;;;;0.00;0.00;;;;;;;5.66;91.86;99953.63;10388899;28;20025;-65
2022/02/14 03:51:10;;;;;;;0.00;0.00;;;;;;;5.66;92.20;99945.72;10396592;28;20029;-65
2022/02/14 03:56:10;;;;;;;0.00;0.00;;;;;;;5.70;92.06;99918.00;10396755;28;20352;-66
2022/02/14 04:01:11;;;;;;;0.00;0.00;;;;;;;5.79;91.66;99929.47;10377998;28;20068;-65
2022/02/14 04:06:11;;;;;;;0.00;0.00;;;;;;;5.78;91.84;99936.59;10378282;28;20500;-65
2022/02/14 04:11:11;;;;;;;0.00;0.00;;;;;;;5.83;91.95;99934.31;10372007;28;20033;-65
2022/02/14 04:16:11;;;;;;;0.00;0.00;;;;;;;5.90;91.87;99921.34;10369951;28;20256;-66
2022/02/14 04:21:12;;;;;;;0.00;0.00;;;;;;;5.88;91.94;99926.78;10393484;28;20490;-65
2022/02/14 04:26:12;;;;;;;0.00;0.00;;;;;;;6.01;90.55;99915.03;10399369;28;20469;-65
2022/02/14 04:31:12;;;;;;;0.00;0.00;;;;;;;6.06;91.40;99923.34;10384620;28;20022;-65
2022/02/14 04:36:13;;;;;;;0.00;0.00;;;;;;;6.14;89.79;99910.19;10384981;28;20280;-66
2022/02/14 04:41:13;;;;;;;0.00;0.00;;;;;;;6.10;90.21;99906.19;10390292;28;20061;-64
2022/02/14 04:46:14;;;;;;;0.00;0.00;;;;;;;6.00;91.10;99900.16;10430024;22;20487;-65
2022/02/14 04:51:14;;;;;;;0.00;0.00;;;;;;;6.03;91.04;99899.84;10439335;28;20396;-65
2022/02/14 04:56:14;;;;;;;0.00;0.00;;;;;;;6.00;91.02;99902.81;10442072;28;20013;-65
2022/02/14 05:01:15;;;;;;;0.00;0.00;;;;;;;6.00;90.64;99894.88;10440994;28;20060;-65
2022/02/14 05:06:16;;;;;;;0.00;0.00;;;;;;;5.98;91.08;99886.25;10445148;28;20013;-65
2022/02/14 05:11:16;;;;;;;0.00;0.00;;;;;;;5.99;90.66;99886.13;10449615;28;20484;-65
2022/02/14 05:16:23;;;;;;;0.00;0.00;;;;;;;6.02;90.75;99892.88;10449854;28;20013;-65
2022/02/14 05:21:23;;;;;;;0.00;0.00;;;;;;;6.04;90.57;99883.00;10437790;28;20033;-65
2022/02/14 05:26:24;;;;;;;0.00;0.00;;;;;;;5.96;91.34;99885.56;10447087;28;20017;-65
2022/02/14 05:31:26;;;;;;;0.10;0.10;;;;;;;6.00;90.64;99863.97;10432280;28;20025;-65
2022/02/14 05:36:27;;;;;;;0.00;0.00;;;;;;;5.99;91.28;99872.91;10444062;28;20021;-65
2022/02/14 05:41:27;;;;;;;0.00;0.00;;;;;;;5.94;91.30;99872.53;10452709;28;20051;-65
2022/02/14 05:46:28;;;;;;;0.00;0.00;;;;;;;5.94;90.99;99866.41;10446453;28;20031;-65
2022/02/14 05:51:28;;;;;;;0.00;0.00;;;;;;;6.07;90.10;99866.81;10444689;28;20611;-65
2022/02/14 05:56:29;;;;;;;0.00;0.00;;;;;;;6.02;91.00;99862.03;10436504;28;20024;-65
2022/02/14 06:01:29;;;;;;;0.00;0.00;;;;;;;6.01;90.87;99865.63;10444898;28;20024;-65
2022/02/14 06:06:29;;;;;;;0.00;0.00;;;;;;;6.01;91.40;99883.31;10443652;28;20032;-65
2022/02/14 06:11:30;;;;;;;0.00;0.00;;;;;;;6.00;91.44;99876.38;10419455;28;20030;-65
2022/02/14 06:16:31;;;;;;;0.00;0.00;;;;;;;6.04;90.97;99883.00;10439535;28;20028;-65
2022/02/14 06:21:31;;;;;;;0.00;0.00;;;;;;;6.09;90.47;99856.94;10447555;28;20383;-65
2022/02/14 06:26:32;;;;;;;0.00;0.00;;;;;;;6.15;90.60;99874.81;10447353;28;20021;-65
2022/02/14 06:31:33;;;;;;;0.10;0.10;;;;;;;6.17;90.80;99870.22;10442736;28;20063;-65
2022/02/14 06:36:33;;;;;;;0.00;0.00;;;;;;;6.24;90.07;99879.19;10429764;28;20025;-65
2022/02/14 06:41:33;;;;;;;0.00;0.00;;;;;;;6.27;90.15;99886.00;10450221;28;20070;-66
2022/02/14 06:46:33;;;;;;;0.03;0.03;;;;;;;6.28;90.18;99883.19;10441013;28;20025;-65
2022/02/14 06:51:39;;;;;;;0.00;0.00;;;;;;;6.28;89.76;99891.13;10450300;28;20029;-66
2022/02/14 06:56:40;;;;;;;0.00;0.00;;;;;;;6.27;89.82;99878.06;10440150;28;20420;-66
2022/02/14 07:01:40;;;;;;;0.00;0.00;;;;;;;6.20;90.14;99861.97;10443066;28;20025;-65
2022/02/14 07:06:41;;;;;;;0.00;0.00;;;;;;;6.22;90.11;99881.16;10445762;28;20013;-66
2022/02/14 07:11:44;;;;;;;0.00;0.00;;;;;;;6.25;89.63;99866.78;10441416;28;20025;-66
2022/02/14 07:16:44;;;;;;;0.00;0.00;;;;;;;6.26;89.80;99866.66;10447355;28;20723;-65
2022/02/14 07:21:45;;;;;;;0.00;0.00;;;;;;;6.30;89.65;99860.06;10449202;28;20025;-65
2022/02/14 07:26:45;;;;;;;0.08;0.08;;;;;;;6.32;89.95;99886.38;10433643;28;20021;-65
2022/02/14 07:31:46;;;;;;;0.00;0.00;;;;;;;6.42;88.86;99878.31;10389982;28;20060;-65
2022/02/14 07:36:46;;;;;;;0.00;0.00;;;;;;;6.40;89.22;99867.91;10398616;28;20348;-65
2022/02/14 07:41:48;;;;;;;0.00;0.00;;;;;;;6.48;89.40;99877.69;10396819;28;20037;-64
2022/02/14 07:46:51;;;;;;;0.00;0.00;;;;;;;6.49;89.05;99876.72;10394617;28;20113;-65
2022/02/14 07:51:51;;;;;;;0.10;0.10;;;;;;;6.53;89.70;99872.78;10393166;28;20025;-65
2022/02/14 07:56:51;;;;;;;0.00;0.00;;;;;;;6.60;88.89;99867.66;10395430;28;20415;-65
2022/02/14 08:01:52;;;;;;;0.00;0.00;;;;;;;6.64;88.59;99867.22;10417144;28;20396;-65
2022/02/14 08:06:53;;;;;;;0.00;0.00;;;;;;;6.68;89.73;99863.25;10450388;28;20052;-64
2022/02/14 08:11:53;;;;;;;0.10;0.10;;;;;;;6.74;88.35;99867.09;10454926;28;20021;-64
2022/02/14 08:16:53;;;;;;;0.10;0.10;;;;;;;6.75;88.57;99852.88;10465895;28;20358;-64
2022/02/14 08:21:54;;;;;;;0.00;0.00;;;;;;;6.82;88.13;99861.00;10472053;28;20614;-65
2022/02/14 08:26:54;;;;;;;0.00;0.00;;;;;;;6.93;88.00;99864.22;10450064;28;20685;-65
2022/02/14 08:31:55;;;;;;;0.10;0.10;;;;;;;7.04;88.67;99860.47;10449511;28;20123;-65
2022/02/14 08:36:55;;;;;;;0.00;0.00;;;;;;;7.15;88.60;99846.91;10445581;28;20400;-65
2022/02/14 08:41:55;;;;;;;0.00;0.00;;;;;;;7.32;89.21;99846.94;10453163;28;20025;-65
2022/02/14 08:46:56;;;;;;;0.00;0.00;;;;;;;7.58;89.08;99818.50;10450641;28;20039;-65
2022/02/14 08:51:56;;;;;;;0.00;0.00;;;;;;;7.90;88.28;99824.81;10430242;28;20464;-65
2022/02/14 08:56:57;;;;;;;0.00;0.00;;;;;;;8.20;86.99;99811.84;10434701;28;20017;-65
2022/02/14 09:02:00;;;;;;;0.10;0.10;;;;;;;8.56;84.94;99814.97;10406337;28;20393;-65
2022/02/14 09:07:01;;;;;;;0.00;0.00;;;;;;;8.77;84.03;99820.53;10417441;28;20696;-65
2022/02/14 09:12:01;;;;;;;0.10;0.10;;;;;;;8.88;84.09;99823.81;10447941;28;20423;-65
2022/02/14 09:17:02;;;;;;;0.10;0.10;;;;;;;9.02;83.23;99815.13;10437605;28;20017;-65
2022/02/14 09:22:03;;;;;;;0.10;0.10;;;;;;;9.42;82.50;99792.75;10444539;28;20391;-65
2022/02/14 09:27:03;;;;;;;0.10;0.10;;;;;;;10.07;78.74;99817.19;10449099;28;20365;-66
2022/02/14 09:32:04;;;;;;;0.08;0.08;;;;;;;9.84;80.75;99812.75;10447928;28;20020;-66
2022/02/14 09:37:04;;;;;;;0.10;0.10;;;;;;;9.66;80.61;99812.22;10415936;28;20114;-65
2022/02/14 09:42:05;;;;;;;0.10;0.10;;;;;;;10.04;80.47;99798.94;10440005;28;20025;-65
2022/02/14 09:47:06;;;;;;;0.10;0.10;;;;;;;10.07;80.93;99809.22;10425331;28;20287;-66
2022/02/14 09:52:07;;;;;;;0.10;0.10;;;;;;;10.09;80.67;99804.53;10449219;28;20173;-65
2022/02/14 09:57:07;;;;;;;0.10;0.10;;;;;;;10.40;80.77;99828.38;10446270;28;20029;-65
2022/02/14 10:02:23;;;;;;;0.10;0.10;;;;;;;10.77;78.91;99808.00;10447101;28;20022;-65
2022/02/14 10:07:23;;;;;;;0.10;0.10;;;;;;;10.83;78.67;99812.59;10431155;28;20383;-65
2022/02/14 10:12:23;;;;;;;0.08;0.08;;;;;;;10.77;78.43;99821.31;10424625;28;20028;-66
2022/02/14 10:17:24;;;;;;;0.10;0.10;;;;;;;10.54;80.03;99819.56;10448037;28;20020;-66
2022/02/14 10:22:25;;;;;;;0.10;0.10;;;;;;;10.30;81.40;99833.16;10450594;28;20021;-66
2022/02/14 10:27:33;;;;;;;0.10;0.10;;;;;;;10.32;82.09;99826.59;10451603;28;20063;-66
2022/02/14 10:32:33;;;;;;;0.00;0.00;;;;;;;10.44;82.67;99842.97;10449944;28;20032;-65
2022/02/14 10:37:42;;;;;;;0.10;0.10;;;;;;;10.55;82.31;99839.03;10448384;28;20021;-65
2022/02/14 10:47:51;;;;;;;0.10;0.10;;;;;;;10.64;83.88;99852.06;10450386;28;20056;-65
2022/02/14 10:52:56;;;;;;;0.00;0.00;;;;;;;10.76;83.75;99846.28;10453120;28;20083;-65
2022/02/14 10:57:58;;;;;;;0.10;0.10;;;;;;;10.74;83.36;99865.13;10452860;28;20056;-65
2022/02/14 11:03:06;;;;;;;0.10;0.10;;;;;;;10.73;84.67;99850.13;10452734;28;20438;-66
2022/02/14 11:08:08;;;;;;;0.10;0.10;;;;;;;10.68;83.95;99865.88;10452645;28;20017;-66
2022/02/14 11:13:10;;;;;;;0.10;0.10;;;;;;;10.62;84.27;99855.94;10434320;28;20115;-66
2022/02/14 11:18:15;;;;;;;0.10;0.10;;;;;;;10.63;85.77;99849.59;10434334;28;20021;-66
2022/02/14 11:23:18;;;;;;;0.10;0.10;;;;;;;10.70;84.83;99858.50;10434106;28;20021;-66
2022/02/14 11:28:28;;;;;;;0.00;0.00;;;;;;;10.64;85.35;99870.72;10433903;28;20479;-65
2022/02/14 11:33:29;;;;;;;0.10;0.10;;;;;;;10.54;85.42;99870.16;10451640;28;20025;-65
2022/02/14 11:38:50;;;;;;;0.10;0.10;;;;;;;10.58;86.10;99875.94;10451793;28;20024;-65
2022/02/14 11:44:11;;;;;;;0.10;0.10;;;;;;;10.52;85.91;99863.38;10450715;28;20043;-66
2022/02/14 11:49:15;;;;;;;0.10;0.10;;;;;;;10.57;86.40;99867.13;10451372;28;20112;-64
2022/02/14 11:54:33;;;;;;;0.10;0.10;;;;;;;10.57;85.83;99871.63;10451349;28;20484;-66
2022/02/14 11:59:34;;;;;;;0.10;0.10;;;;;;;10.55;87.12;99869.16;10410761;28;20029;-65
2022/02/14 12:04:44;;;;;;;0.10;0.10;;;;;;;10.60;85.79;99865.94;10409915;28;20022;-66
2022/02/14 12:09:56;;;;;;;0.10;0.10;;;;;;;10.66;88.13;99867.88;10422375;28;20222;-66
2022/02/14 12:20:35;;;;;;;0.08;0.08;;;;;;;10.60;87.78;99855.28;10451642;28;20124;-66
2022/02/14 12:25:36;;;;;;;0.10;0.10;;;;;;;10.62;88.14;99856.78;10422818;28;20021;-67
2022/02/14 12:30:40;;;;;;;0.10;0.10;;;;;;;10.66;87.45;99859.88;10429721;28;20472;-77
2022/02/14 12:35:45;;;;;;;0.10;0.10;;;;;;;10.65;87.90;99856.41;10431689;28;20013;-69
2022/02/14 12:40:53;;;;;;;0.10;0.10;;;;;;;10.69;87.96;99862.19;10447623;28;20107;-69
2022/02/14 12:45:57;;;;;;;0.10;0.10;;;;;;;10.65;87.96;99852.91;10444045;28;20029;-69
2022/02/14 12:50:58;;;;;;;0.10;0.10;;;;;;;10.55;88.32;99860.34;10448620;28;20032;-69
2022/02/14 12:56:16;;;;;;;0.10;0.10;;;;;;;10.43;89.28;99858.13;10440813;28;20040;-69
2022/02/14 13:01:19;;;;;;;0.10;0.10;;;;;;;10.37;90.04;99864.16;10451006;28;20029;-68
2022/02/14 13:06:20;;;;;;;0.10;0.10;;;;;;;10.33;90.31;99868.22;10453968;28;20078;-68
2022/02/14 13:11:20;;;;;;;0.10;0.10;;;;;;;10.32;90.27;99871.03;10451727;28;20041;-67
2022/02/14 13:16:27;;;;;;;0.00;0.00;;;;;;;10.32;90.23;99871.03;10452728;28;20025;-67
2022/02/14 13:21:28;;;;;;;0.00;0.00;;;;;;;10.28;90.89;99878.56;10449835;28;20017;-66
2022/02/14 13:26:28;;;;;;;0.10;0.10;;;;;;;10.19;91.63;99890.25;10425644;28;20376;-66
2022/02/14 13:31:29;;;;;;;0.10;0.10;;;;;;;10.13;92.84;99893.66;10445156;28;20857;-66
2022/02/14 13:36:29;;;;;;;0.10;0.10;;;;;;;10.09;93.43;99902.97;10443571;28;20502;-66
2022/02/14 13:41:30;;;;;;;0.10;0.10;;;;;;;10.20;94.31;99894.56;10447926;28;20036;-66
2022/02/14 13:46:32;;;;;;;0.10;0.10;;;;;;;10.46;93.76;99909.34;10434918;28;20400;-67
2022/02/14 13:51:33;;;;;;;0.10;0.10;;;;;;;10.60;94.06;99905.88;10418751;28;20021;-67
2022/02/14 13:56:43;;;;;;;0.10;0.10;;;;;;;10.76;93.87;99923.53;10458197;28;20025;-67
2022/02/14 14:01:44;;;;;;;0.00;0.00;;;;;;;10.74;93.00;99921.06;10442672;28;20114;-66
2022/02/14 14:06:45;;;;;;;0.10;0.10;;;;;;;10.80;93.88;99924.84;10432438;28;20025;-67
2022/02/14 14:11:46;;;;;;;0.10;0.10;;;;;;;10.81;90.25;99921.97;10449201;28;20029;-67
2022/02/14 14:16:48;;;;;;;0.10;0.10;;;;;;;10.70;91.29;99925.09;10440629;28;20017;-67
2022/02/14 14:21:51;;;;;;;0.10;0.10;;;;;;;10.56;92.03;99941.84;10444598;28;20510;-67
2022/02/14 14:26:51;;;;;;;0.00;0.00;;;;;;;10.53;91.50;99943.06;10442778;28;20147;-66
2022/02/14 14:31:52;;;;;;;0.10;0.10;;;;;;;10.51;92.11;99946.94;10445877;28;20146;-67
2022/02/14 14:36:52;;;;;;;0.00;0.00;;;;;;;10.45;92.45;99937.00;10438309;28;20287;-67
2022/02/14 14:41:52;;;;;;;0.10;0.10;;;;;;;10.30;92.66;99945.75;10427916;28;20387;-68
2022/02/14 14:46:55;;;;;;;0.10;0.10;;;;;;;10.19;93.25;99946.97;10449896;28;20055;-68
2022/02/14 14:51:55;;;;;;;0.10;0.10;;;;;;;10.14;94.24;99948.50;10450394;28;20039;-68
2022/02/14 14:57:00;;;;;;;0.10;0.10;;;;;;;10.08;95.85;99943.91;10450563;28;20015;-68
2022/02/14 15:02:01;;;;;;;0.10;0.10;;;;;;;10.08;96.33;99936.75;10452858;28;20115;-68
2022/02/14 15:07:02;;;;;;;0.05;0.05;;;;;;;10.04;95.18;99947.94;10445696;28;20025;-68
2022/02/14 15:12:03;;;;;;;0.10;0.10;;;;;;;9.88;95.50;99955.00;10424238;28;20029;-68
2022/02/14 15:17:04;;;;;;;0.10;0.10;;;;;;;9.77;95.95;99952.72;10423117;28;20041;-70
2022/02/14 15:22:05;;;;;;;0.10;0.10;;;;;;;9.71;94.74;99966.72;10446233;28;20432;-70
2022/02/14 15:27:07;;;;;;;0.10;0.10;;;;;;;9.68;94.21;99975.06;10450045;28;20031;-69
2022/02/14 15:32:07;;;;;;;0.10;0.10;;;;;;;9.61;93.96;99979.44;10431644;28;20080;-69
2022/02/14 15:37:07;;;;;;;0.10;0.10;;;;;;;9.56;92.65;99981.78;10429682;28;20021;-69
2022/02/14 15:42:09;;;;;;;0.00;0.00;;;;;;;9.51;92.85;99985.78;10393336;28;20532;-68
2022/02/14 15:47:10;;;;;;;0.10;0.10;;;;;;;9.45;92.15;99999.78;10446386;28;20034;-68
2022/02/14 15:52:10;;;;;;;0.10;0.10;;;;;;;9.37;93.02;99997.13;10431489;28;20021;-69
2022/02/14 15:57:11;;;;;;;0.10;0.10;;;;;;;9.27;92.65;100004.47;10444146;28;20021;-69
2022/02/14 16:02:11;;;;;;;0.10;0.10;;;;;;;9.15;93.44;100011.97;10420518;28;20456;-68
2022/02/14 16:07:11;;;;;;;0.10;0.10;;;;;;;9.07;93.97;100012.84;10436914;28;20287;-68
2022/02/14 16:12:12;;;;;;;0.00;0.00;;;;;;;9.05;94.04;100017.47;10417345;28;20060;-68
2022/02/14 16:17:16;;;;;;;0.10;0.10;;;;;;;9.03;93.68;100030.09;10438826;28;20381;-67
2022/02/14 16:22:16;;;;;;;0.10;0.10;;;;;;;8.96;93.74;100037.09;10428010;28;20053;-67
2022/02/14 16:27:17;;;;;;;0.10;0.10;;;;;;;8.84;94.59;100049.03;10430791;28;20061;-67
2022/02/14 16:32:17;;;;;;;0.10;0.10;;;;;;;8.72;95.78;100059.16;10436042;28;20422;-67
2022/02/14 16:37:18;;;;;;;0.10;0.10;;;;;;;8.72;96.54;100061.81;10446232;28;20021;-67
2022/02/14 16:42:18;;;;;;;0.00;0.00;;;;;;;8.65;95.80;100089.22;10447942;28;20391;-66
2022/02/14 16:47:19;;;;;;;0.10;0.10;;;;;;;8.32;98.09;100089.94;10445144;28;20052;-67
2022/02/14 16:52:30;;;;;;;0.00;0.00;;;;;;;8.06;98.66;100090.03;10437447;23;20134;-69
2022/02/14 16:57:31;;;;;;;0.10;0.10;;;;;;;7.94;99.83;100089.50;10375194;28;20022;-70
2022/02/14 17:02:31;;;;;;;0.10;0.10;;;;;;;7.85;100.00;100095.78;10373966;28;20025;-69
2022/02/14 17:07:31;;;;;;;0.10;0.10;;;;;;;7.79;100.00;100098.22;10374840;28;20042;-69
2022/02/14 17:12:32;;;;;;;0.10;0.10;;;;;;;7.77;100.00;100101.03;10376678;28;20430;-69
2022/02/14 17:17:32;;;;;;;0.00;0.00;;;;;;;7.72;100.00;100101.50;10373981;28;20747;-69
2022/02/14 17:22:33;;;;;;;0.00;0.00;;;;;;;7.67;100.00;100113.56;10372450;28;20639;-69
2022/02/14 17:27:35;;;;;;;0.10;0.10;;;;;;;7.62;100.00;100127.31;10374122;28;20045;-69
2022/02/14 17:32:36;;;;;;;0.10;0.10;;;;;;;7.49;100.00;100118.94;10373443;28;20630;-69
2022/02/14 17:37:37;;;;;;;0.10;0.10;;;;;;;7.26;100.00;100130.03;10373636;28;20101;-69
2022/02/14 17:42:38;;;;;;;0.10;0.10;;;;;;;7.05;100.00;100139.31;10373507;28;20033;-69
2022/02/14 17:47:39;;;;;;;0.10;0.10;;;;;;;6.82;100.00;100139.78;10413967;28;20017;-69
2022/02/14 17:52:39;;;;;;;0.10;0.10;;;;;;;6.63;100.00;100145.22;10413487;28;20037;-69
2022/02/14 17:57:40;;;;;;;0.00;0.00;;;;;;;6.49;100.00;100141.28;10413792;28;20024;-69
2022/02/14 18:02:41;;;;;;;0.00;0.00;;;;;;;6.32;100.00;100140.28;10413557;28;20033;-69
2022/02/14 18:07:44;;;;;;;0.00;0.00;;;;;;;6.19;100.00;100150.34;10413244;28;20384;-69
2022/02/14 18:12:44;;;;;;;0.00;0.00;;;;;;;6.12;100.00;100156.22;10411456;28;20034;-69
2022/02/14 18:17:45;;;;;;;0.10;0.10;;;;;;;6.09;100.00;100161.00;10412998;28;20431;-69
2022/02/14 18:22:45;;;;;;;0.03;0.03;;;;;;;6.09;100.00;100161.81;10412432;28;20053;-69
2022/02/14 18:27:46;;;;;;;0.00;0.00;;;;;;;6.07;100.00;100161.13;10413193;28;20627;-69
2022/02/14 18:32:48;;;;;;;0.00;0.00;;;;;;;6.04;100.00;100166.69;10412041;28;20037;-69
2022/02/14 18:37:48;;;;;;;0.00;0.00;;;;;;;6.02;100.00;100165.19;10412306;28;20052;-69
2022/02/14 18:42:49;;;;;;;0.00;0.00;;;;;;;6.02;100.00;100167.81;10409420;28;20079;-69
2022/02/14 18:47:49;;;;;;;0.00;0.00;;;;;;;6.03;100.00;100162.41;10370659;28;20295;-69
2022/02/14 18:52:50;;;;;;;0.00;0.00;;;;;;;6.05;100.00;100162.25;10373698;28;20029;-69
2022/02/14 18:57:50;;;;;;;0.00;0.00;;;;;;;6.04;100.00;100172.00;10387488;28;20100;-69
2022/02/14 19:02:51;;;;;;;0.00;0.00;;;;;;;6.23;100.00;100173.72;10409616;28;20021;-69
2022/02/14 19:07:52;;;;;;;0.00;0.00;;;;;;;6.58;100.00;100172.13;10396724;28;20382;-69
2022/02/14 19:12:52;;;;;;;0.00;0.00;;;;;;;6.78;100.00;100183.44;10376746;28;20043;-69
2022/02/14 19:17:52;;;;;;;0.00;0.00;;;;;;;6.74;100.00;100190.81;10382253;28;20108;-69
2022/02/14 19:22:53;;;;;;;0.00;0.00;;;;;;;6.60;100.00;100190.50;10408624;28;20075;-69
2022/02/14 19:27:53;;;;;;;0.00;0.00;;;;;;;6.59;100.00;100197.59;10406592;28;20104;-69
2022/02/14 19:38:13;;;;;;;0.00;0.00;;;;;;;6.63;100.00;100198.13;10390176;28;20022;-69
2022/02/14 19:43:13;;;;;;;0.00;0.00;;;;;;;6.55;100.00;100212.94;10373925;28;20033;-69
2022/02/14 19:48:14;;;;;;;0.00;0.00;;;;;;;6.48;100.00;100213.69;10374778;28;20026;-69
2022/02/14 19:53:14;;;;;;;0.00;0.00;;;;;;;6.35;100.00;100214.88;10389379;28;20420;-70
2022/02/14 19:58:14;;;;;;;0.00;0.00;;;;;;;6.29;100.00;100211.97;10403232;28;20041;-69
2022/02/14 20:03:15;;;;;;;0.00;0.00;;;;;;;6.33;100.00;100211.53;10397407;28;20766;-70
2022/02/14 20:08:19;;;;;;;0.00;0.00;;;;;;;6.34;100.00;100225.56;10376511;28;20021;-70
2022/02/14 20:13:20;;;;;;;;;;;;;;;6.33;100.00;100226.56;10383368;28;20265;-69
2022/02/14 20:18:20;;;;;;;0.00;0.00;;;;;;;6.20;100.00;100224.28;10381564;28;19909;-69
2022/02/14 20:23:21;;;;;;;0.10;0.10;;;;;;;6.05;100.00;100225.69;10374616;28;20260;-69
2022/02/14 20:28:21;;;;;;;0.00;0.00;;;;;;;5.90;100.00;100230.59;10405872;28;20013;-69
2022/02/14 20:33:22;;;;;;;0.00;0.00;;;;;;;5.76;100.00;100216.03;10382137;28;20104;-69
2022/02/14 20:38:22;;;;;;;0.00;0.00;;;;;;;5.65;100.00;100226.75;10391865;28;20025;-69
2022/02/14 20:43:22;;;;;;;0.00;0.00;;;;;;;5.54;100.00;100230.38;10410752;28;20028;-69
2022/02/14 20:48:23;;;;;;;0.00;0.00;;;;;;;5.48;100.00;100224.84;10384861;28;20014;-69
2022/02/14 20:53:23;;;;;;;0.00;0.00;;;;;;;5.43;100.00;100226.09;10374321;28;20041;-69
2022/02/14 20:58:23;;;;;;;0.00;0.00;;;;;;;5.44;100.00;100214.56;10385270;28;20097;-69
2022/02/14 21:03:24;;;;;;;0.00;0.00;;;;;;;5.41;100.00;100216.63;10391305;28;20021;-69
2022/02/14 21:08:24;;;;;;;0.00;0.00;;;;;;;5.39;100.00;100222.06;10374000;28;20017;-69
2022/02/14 21:13:28;;;;;;;0.00;0.00;;;;;;;5.35;100.00;100220.69;10377993;28;20025;-69
2022/02/14 21:18:28;;;;;;;0.00;0.00;;;;;;;5.34;100.00;100219.00;10383573;28;20018;-68
2022/02/14 21:23:28;;;;;;;0.00;0.00;;;;;;;5.34;100.00;100216.38;10372881;28;20018;-69
2022/02/14 21:28:28;;;;;;;0.00;0.00;;;;;;;5.35;100.00;100223.34;10372760;28;20022;-70
2022/02/14 21:33:29;;;;;;;0.10;0.10;;;;;;;5.31;100.00;100224.56;10372239;28;20033;-68
2022/02/14 21:38:29;;;;;;;0.00;0.00;;;;;;;5.31;100.00;100214.00;10372310;28;20378;-68
2022/02/14 21:43:30;;;;;;;0.00;0.00;;;;;;;5.28;100.00;100218.75;10377239;28;20269;-69
2022/02/14 21:48:30;;;;;;;0.00;0.00;;;;;;;5.18;100.00;100218.75;10382507;28;20515;-69
2022/02/14 21:53:31;;;;;;;0.00;0.00;;;;;;;5.03;100.00;100218.31;10371549;28;20057;-68
2022/02/14 21:58:31;;;;;;;0.00;0.00;;;;;;;4.88;100.00;100212.59;10380136;28;20024;-68
2022/02/14 22:03:31;;;;;;;0.00;0.00;;;;;;;4.81;100.00;100214.13;10370916;28;20295;-68
2022/02/14 22:08:31;;;;;;;0.00;0.00;;;;;;;4.81;100.00;100211.50;10371544;28;20436;-68
2022/02/14 22:13:32;;;;;;;0.00;0.00;;;;;;;4.79;100.00;100221.34;10377737;28;20026;-68
2022/02/14 22:18:32;;;;;;;0.00;0.00;;;;;;;4.79;100.00;100223.97;10406106;28;20025;-68
2022/02/14 22:23:32;;;;;;;0.00;0.00;;;;;;;4.79;100.00;100215.25;10411140;28;20124;-68
2022/02/14 22:28:33;;;;;;;0.00;0.00;;;;;;;4.76;100.00;100218.97;10410861;28;20635;-68
2022/02/14 22:33:34;;;;;;;0.00;0.00;;;;;;;4.73;100.00;100209.53;10410553;28;20691;-70
2022/02/14 22:38:34;;;;;;;0.00;0.00;;;;;;;4.74;100.00;100205.09;10389631;28;20064;-68
2022/02/14 22:43:36;;;;;;;0.00;0.00;;;;;;;4.73;100.00;100211.34;10375620;28;20025;-69
2022/02/14 22:48:36;;;;;;;0.00;0.00;;;;;;;4.71;100.00;100211.50;10380372;28;20013;-68
2022/02/14 22:53:36;;;;;;;0.00;0.00;;;;;;;4.74;100.00;100205.94;10444966;22;20133;-67
2022/02/14 22:58:36;;;;;;;0.00;0.00;;;;;;;4.78;100.00;100201.22;10427242;28;20028;-67
2022/02/14 23:03:37;;;;;;;0.00;0.00;;;;;;;4.84;100.00;100192.75;10426701;28;20456;-67
2022/02/14 23:14:14;;;;;;;0.00;0.00;;;;;;;5.26;100.00;100200.38;10427178;28;20033;-67
2022/02/14 23:19:15;;;;;;;0.00;0.00;;;;;;;5.43;100.00;100199.66;10426406;28;20029;-67
2022/02/14 23:24:15;;;;;;;0.00;0.00;;;;;;;5.56;100.00;100212.59;10432518;28;20024;-66
2022/02/14 23:29:16;;;;;;;0.00;0.00;;;;;;;5.62;100.00;100204.09;10420823;28;20034;-66
2022/02/14 23:34:16;;;;;;;0.00;0.00;;;;;;;5.76;100.00;100205.47;10423380;28;20040;-66
2022/02/14 23:39:16;;;;;;;0.00;0.00;;;;;;;5.88;100.00;100198.19;10425436;28;20052;-66
2022/02/14 23:44:16;;;;;;;0.00;0.00;;;;;;;5.97;100.00;100202.66;10424422;28;20036;-66